sensor_id;sensor_type;location;lat;lon;timestamp;temperature;humidity
9666;DHT22;4871;52.004;5.924;2022-12-18T00:00:00;-1.9;80.4
9666;DHT22;4871;52.004;5.924;2022-12-18T00:01:21;-1.9;80.5
9666;DHT22;4871;52.004;5.924;2022-12-18T00:02:00;-1.9;80.4
9666;DHT22;4871;52.004;5.924;2022-12-18T00:03:05;-1.9;80.4
9666;DHT22;4871;52.004;5.924;2022-12-18T00:04:02;-1.9;80.2
9666;DHT22;4871;52.004;5.924;2022-12-18T00:05:03;-1.9;80.3
9666;DHT22;4871;52.004;5.924;2022-12-18T00:06:01;-1.9;80.3
9666;DHT22;4871;52.004;5.924;2022-12-18T00:07:05;-1.9;80.4
9666;DHT22;4871;52.004;5.924;2022-12-18T00:08:00;-2.0;80.3
9666;DHT22;4871;52.004;5.924;2022-12-18T00:09:06;-2.0;80.3
9666;DHT22;4871;52.004;5.924;2022-12-18T00:10:00;-2.0;80.2
9666;DHT22;4871;52.004;5.924;2022-12-18T00:11:06;-2.0;80.1
9666;DHT22;4871;52.004;5.924;2022-12-18T00:12:00;-2.1;80.3
9666;DHT22;4871;52.004;5.924;2022-12-18T00:13:05;-2.1;80.3
9666;DHT22;4871;52.004;5.924;2022-12-18T00:14:00;-2.1;80.2
9666;DHT22;4871;52.004;5.924;2022-12-18T00:15:03;-2.0;80.3
9666;DHT22;4871;52.004;5.924;2022-12-18T00:16:05;-2.0;80.0
9666;DHT22;4871;52.004;5.924;2022-12-18T00:17:03;-2.1;80.0
9666;DHT22;4871;52.004;5.924;2022-12-18T00:18:00;-2.2;80.2
9666;DHT22;4871;52.004;5.924;2022-12-18T00:19:05;-2.2;80.4
9666;DHT22;4871;52.004;5.924;2022-12-18T00:20:00;-2.1;80.2
9666;DHT22;4871;52.004;5.924;2022-12-18T00:21:06;-2.2;80.4
9666;DHT22;4871;52.004;5.924;2022-12-18T00:22:00;-2.3;80.2
9666;DHT22;4871;52.004;5.924;2022-12-18T00:23:05;-2.2;80.5
9666;DHT22;4871;52.004;5.924;2022-12-18T00:24:00;-2.2;80.5
9666;DHT22;4871;52.004;5.924;2022-12-18T00:25:04;-2.2;80.2
9666;DHT22;4871;52.004;5.924;2022-12-18T00:26:02;-2.2;80.3
9666;DHT22;4871;52.004;5.924;2022-12-18T00:27:06;-2.1;80.3
9666;DHT22;4871;52.004;5.924;2022-12-18T00:28:01;-2.2;80.3
9666;DHT22;4871;52.004;5.924;2022-12-18T00:29:10;-2.2;80.3
9666;DHT22;4871;52.004;5.924;2022-12-18T00:30:00;-2.2;80.3
9666;DHT22;4871;52.004;5.924;2022-12-18T00:31:07;-2.3;80.4
9666;DHT22;4871;52.004;5.924;2022-12-18T00:32:00;-2.3;80.1
9666;DHT22;4871;52.004;5.924;2022-12-18T00:33:04;-2.3;80.4
9666;DHT22;4871;52.004;5.924;2022-12-18T00:34:01;-2.3;80.2
9666;DHT22;4871;52.004;5.924;2022-12-18T00:35:05;-2.2;80.1
9666;DHT22;4871;52.004;5.924;2022-12-18T00:36:02;-2.2;80.1
9666;DHT22;4871;52.004;5.924;2022-12-18T00:37:04;-2.3;80.2
9666;DHT22;4871;52.004;5.924;2022-12-18T00:38:00;-2.3;80.3
9666;DHT22;4871;52.004;5.924;2022-12-18T00:39:04;-2.4;80.4
9666;DHT22;4871;52.004;5.924;2022-12-18T00:40:00;-2.3;80.2
9666;DHT22;4871;52.004;5.924;2022-12-18T00:41:05;-2.3;80.3
9666;DHT22;4871;52.004;5.924;2022-12-18T00:42:10;-2.4;80.3
9666;DHT22;4871;52.004;5.924;2022-12-18T00:43:03;-2.3;80.4
9666;DHT22;4871;52.004;5.924;2022-12-18T00:44:01;-2.3;80.3
9666;DHT22;4871;52.004;5.924;2022-12-18T00:45:05;-2.3;80.2
9666;DHT22;4871;52.004;5.924;2022-12-18T00:46:00;-2.3;80.1
9666;DHT22;4871;52.004;5.924;2022-12-18T00:47:04;-2.3;79.9
9666;DHT22;4871;52.004;5.924;2022-12-18T00:48:00;-2.3;80.1
9666;DHT22;4871;52.004;5.924;2022-12-18T00:49:04;-2.4;80.1
9666;DHT22;4871;52.004;5.924;2022-12-18T00:50:00;-2.4;80.1
9666;DHT22;4871;52.004;5.924;2022-12-18T00:51:04;-2.4;80.2
9666;DHT22;4871;52.004;5.924;2022-12-18T00:52:00;-2.4;80.1
9666;DHT22;4871;52.004;5.924;2022-12-18T00:53:03;-2.4;80.1
9666;DHT22;4871;52.004;5.924;2022-12-18T00:54:00;-2.4;80.1
9666;DHT22;4871;52.004;5.924;2022-12-18T00:55:04;-2.4;80.1
9666;DHT22;4871;52.004;5.924;2022-12-18T00:56:00;-2.4;80.2
9666;DHT22;4871;52.004;5.924;2022-12-18T00:57:04;-2.4;80.1
9666;DHT22;4871;52.004;5.924;2022-12-18T00:58:00;-2.4;80.1
9666;DHT22;4871;52.004;5.924;2022-12-18T00:59:04;-2.4;80.0
9666;DHT22;4871;52.004;5.924;2022-12-18T01:00:00;-2.5;80.1
9666;DHT22;4871;52.004;5.924;2022-12-18T01:01:04;-2.5;80.2
9666;DHT22;4871;52.004;5.924;2022-12-18T01:02:00;-2.5;80.1
9666;DHT22;4871;52.004;5.924;2022-12-18T01:03:05;-2.5;80.0
9666;DHT22;4871;52.004;5.924;2022-12-18T01:04:01;-2.5;79.8
9666;DHT22;4871;52.004;5.924;2022-12-18T01:05:05;-2.5;80.1
9666;DHT22;4871;52.004;5.924;2022-12-18T01:06:05;-2.5;80.1
9666;DHT22;4871;52.004;5.924;2022-12-18T01:07:04;-2.5;80.0
9666;DHT22;4871;52.004;5.924;2022-12-18T01:08:00;-2.5;80.1
9666;DHT22;4871;52.004;5.924;2022-12-18T01:09:04;-2.5;80.1
9666;DHT22;4871;52.004;5.924;2022-12-18T01:10:00;-2.5;80.1
9666;DHT22;4871;52.004;5.924;2022-12-18T01:11:08;-2.5;80.0
9666;DHT22;4871;52.004;5.924;2022-12-18T01:12:00;-2.5;80.1
9666;DHT22;4871;52.004;5.924;2022-12-18T01:13:03;-2.6;80.1
9666;DHT22;4871;52.004;5.924;2022-12-18T01:14:00;-2.6;80.0
9666;DHT22;4871;52.004;5.924;2022-12-18T01:15:06;-2.6;80.0
9666;DHT22;4871;52.004;5.924;2022-12-18T01:16:00;-2.6;80.1
9666;DHT22;4871;52.004;5.924;2022-12-18T01:17:03;-2.6;80.1
9666;DHT22;4871;52.004;5.924;2022-12-18T01:18:00;-2.6;80.0
9666;DHT22;4871;52.004;5.924;2022-12-18T01:19:05;-2.6;80.0
9666;DHT22;4871;52.004;5.924;2022-12-18T01:20:00;-2.6;79.9
9666;DHT22;4871;52.004;5.924;2022-12-18T01:21:14;-2.6;80.0
9666;DHT22;4871;52.004;5.924;2022-12-18T01:22:00;-2.6;79.9
9666;DHT22;4871;52.004;5.924;2022-12-18T01:23:04;-2.6;80.0
9666;DHT22;4871;52.004;5.924;2022-12-18T01:24:00;-2.6;80.0
9666;DHT22;4871;52.004;5.924;2022-12-18T01:25:05;-2.6;80.0
9666;DHT22;4871;52.004;5.924;2022-12-18T01:26:04;-2.6;79.9
9666;DHT22;4871;52.004;5.924;2022-12-18T01:27:05;-2.7;80.1
9666;DHT22;4871;52.004;5.924;2022-12-18T01:28:02;-2.7;80.1
9666;DHT22;4871;52.004;5.924;2022-12-18T01:29:07;-2.7;80.0
9666;DHT22;4871;52.004;5.924;2022-12-18T01:30:00;-2.7;80.1
9666;DHT22;4871;52.004;5.924;2022-12-18T01:31:21;-2.7;80.1
9666;DHT22;4871;52.004;5.924;2022-12-18T01:32:00;-2.7;80.1
9666;DHT22;4871;52.004;5.924;2022-12-18T01:33:04;-2.7;80.0
9666;DHT22;4871;52.004;5.924;2022-12-18T01:34:01;-2.7;80.1
9666;DHT22;4871;52.004;5.924;2022-12-18T01:35:05;-2.7;80.0
9666;DHT22;4871;52.004;5.924;2022-12-18T01:36:00;-2.7;80.0
9666;DHT22;4871;52.004;5.924;2022-12-18T01:37:04;-2.7;80.0
9666;DHT22;4871;52.004;5.924;2022-12-18T01:38:00;-2.7;80.0
9666;DHT22;4871;52.004;5.924;2022-12-18T01:39:08;-2.7;80.1
9666;DHT22;4871;52.004;5.924;2022-12-18T01:40:00;-2.7;79.9
9666;DHT22;4871;52.004;5.924;2022-12-18T01:41:04;-2.8;79.7
9666;DHT22;4871;52.004;5.924;2022-12-18T01:42:11;-2.7;79.8
9666;DHT22;4871;52.004;5.924;2022-12-18T01:43:04;-2.8;79.6
9666;DHT22;4871;52.004;5.924;2022-12-18T01:44:00;-2.8;80.0
9666;DHT22;4871;52.004;5.924;2022-12-18T01:46:00;-2.8;79.8
9666;DHT22;4871;52.004;5.924;2022-12-18T01:47:04;-2.8;79.8
9666;DHT22;4871;52.004;5.924;2022-12-18T01:48:02;-2.8;80.0
9666;DHT22;4871;52.004;5.924;2022-12-18T01:49:05;-2.8;79.9
9666;DHT22;4871;52.004;5.924;2022-12-18T01:50:05;-2.8;79.8
9666;DHT22;4871;52.004;5.924;2022-12-18T01:51:04;-2.8;79.7
9666;DHT22;4871;52.004;5.924;2022-12-18T01:52:00;-2.8;79.6
9666;DHT22;4871;52.004;5.924;2022-12-18T01:53:11;-2.9;79.7
9666;DHT22;4871;52.004;5.924;2022-12-18T01:54:00;-2.8;79.9
9666;DHT22;4871;52.004;5.924;2022-12-18T01:55:06;-2.9;79.9
9666;DHT22;4871;52.004;5.924;2022-12-18T01:56:01;-2.9;79.9
9666;DHT22;4871;52.004;5.924;2022-12-18T01:57:04;-2.9;79.8
9666;DHT22;4871;52.004;5.924;2022-12-18T01:58:00;-2.9;79.8
9666;DHT22;4871;52.004;5.924;2022-12-18T01:59:08;-2.9;79.7
9666;DHT22;4871;52.004;5.924;2022-12-18T02:00:10;-2.9;80.0
9666;DHT22;4871;52.004;5.924;2022-12-18T02:01:05;-2.9;79.9
9666;DHT22;4871;52.004;5.924;2022-12-18T02:02:01;-2.9;79.8
9666;DHT22;4871;52.004;5.924;2022-12-18T02:03:05;-3.0;79.8
9666;DHT22;4871;52.004;5.924;2022-12-18T02:04:24;-3.0;80.2
9666;DHT22;4871;52.004;5.924;2022-12-18T02:05:05;-3.0;80.0
9666;DHT22;4871;52.004;5.924;2022-12-18T02:06:09;-2.9;80.0
9666;DHT22;4871;52.004;5.924;2022-12-18T02:07:10;-2.9;79.8
9666;DHT22;4871;52.004;5.924;2022-12-18T02:08:09;-2.9;79.7
9666;DHT22;4871;52.004;5.924;2022-12-18T02:09:11;-2.9;79.9
9666;DHT22;4871;52.004;5.924;2022-12-18T02:12:08;-3.0;79.8
9666;DHT22;4871;52.004;5.924;2022-12-18T02:13:24;-3.0;80.1
9666;DHT22;4871;52.004;5.924;2022-12-18T02:14:21;-3.0;79.7
9666;DHT22;4871;52.004;5.924;2022-12-18T02:15:13;-3.0;79.9
9666;DHT22;4871;52.004;5.924;2022-12-18T02:16:03;-3.0;79.8
9666;DHT22;4871;52.004;5.924;2022-12-18T02:17:10;-3.0;79.8
9666;DHT22;4871;52.004;5.924;2022-12-18T02:18:11;-3.0;79.8
9666;DHT22;4871;52.004;5.924;2022-12-18T02:19:13;-3.0;79.8
9666;DHT22;4871;52.004;5.924;2022-12-18T02:21:12;-3.0;79.9
9666;DHT22;4871;52.004;5.924;2022-12-18T02:25:13;-3.1;79.9
9666;DHT22;4871;52.004;5.924;2022-12-18T02:27:06;-3.0;79.7
9666;DHT22;4871;52.004;5.924;2022-12-18T02:28:02;-3.0;79.8
9666;DHT22;4871;52.004;5.924;2022-12-18T02:29:10;-3.0;79.7
9666;DHT22;4871;52.004;5.924;2022-12-18T02:30:03;-3.0;79.8
9666;DHT22;4871;52.004;5.924;2022-12-18T02:31:08;-3.0;79.6
9666;DHT22;4871;52.004;5.924;2022-12-18T02:32:02;-3.0;79.6
9666;DHT22;4871;52.004;5.924;2022-12-18T02:33:06;-3.0;79.5
9666;DHT22;4871;52.004;5.924;2022-12-18T02:34:02;-3.0;79.7
9666;DHT22;4871;52.004;5.924;2022-12-18T02:35:06;-3.1;79.8
9666;DHT22;4871;52.004;5.924;2022-12-18T02:36:01;-3.1;79.7
9666;DHT22;4871;52.004;5.924;2022-12-18T02:37:06;-3.1;79.8
9666;DHT22;4871;52.004;5.924;2022-12-18T02:38:01;-3.1;79.9
9666;DHT22;4871;52.004;5.924;2022-12-18T02:39:05;-3.1;79.8
9666;DHT22;4871;52.004;5.924;2022-12-18T02:40:02;-3.1;79.8
9666;DHT22;4871;52.004;5.924;2022-12-18T02:41:05;-3.1;79.7
9666;DHT22;4871;52.004;5.924;2022-12-18T02:42:02;-3.1;79.7
9666;DHT22;4871;52.004;5.924;2022-12-18T02:43:09;-3.1;79.7
9666;DHT22;4871;52.004;5.924;2022-12-18T02:44:06;-3.1;79.6
9666;DHT22;4871;52.004;5.924;2022-12-18T02:45:06;-3.1;79.7
9666;DHT22;4871;52.004;5.924;2022-12-18T02:47:03;-3.2;79.7
9666;DHT22;4871;52.004;5.924;2022-12-18T02:48:00;-3.2;79.7
9666;DHT22;4871;52.004;5.924;2022-12-18T02:49:20;-3.2;79.7
9666;DHT22;4871;52.004;5.924;2022-12-18T02:50:07;-3.2;79.7
9666;DHT22;4871;52.004;5.924;2022-12-18T02:51:08;-3.2;79.5
9666;DHT22;4871;52.004;5.924;2022-12-18T02:52:10;-3.2;79.6
9666;DHT22;4871;52.004;5.924;2022-12-18T02:53:13;-3.2;79.7
9666;DHT22;4871;52.004;5.924;2022-12-18T02:54:09;-3.2;79.5
9666;DHT22;4871;52.004;5.924;2022-12-18T02:56:13;-3.2;79.6
9666;DHT22;4871;52.004;5.924;2022-12-18T02:57:17;-3.2;79.8
9666;DHT22;4871;52.004;5.924;2022-12-18T02:59:11;-3.2;79.6
9666;DHT22;4871;52.004;5.924;2022-12-18T03:00:04;-3.2;79.8
9666;DHT22;4871;52.004;5.924;2022-12-18T03:01:17;-3.3;79.7
9666;DHT22;4871;52.004;5.924;2022-12-18T03:02:09;-3.3;79.4
9666;DHT22;4871;52.004;5.924;2022-12-18T03:03:14;-3.3;79.8
9666;DHT22;4871;52.004;5.924;2022-12-18T03:04:04;-3.3;79.6
9666;DHT22;4871;52.004;5.924;2022-12-18T03:05:12;-3.3;79.8
9666;DHT22;4871;52.004;5.924;2022-12-18T03:06:04;-3.3;79.7
9666;DHT22;4871;52.004;5.924;2022-12-18T03:07:09;-3.3;79.7
9666;DHT22;4871;52.004;5.924;2022-12-18T03:08:02;-3.3;79.6
9666;DHT22;4871;52.004;5.924;2022-12-18T03:09:07;-3.3;79.8
9666;DHT22;4871;52.004;5.924;2022-12-18T03:10:01;-3.3;79.8
9666;DHT22;4871;52.004;5.924;2022-12-18T03:11:11;-3.3;79.7
9666;DHT22;4871;52.004;5.924;2022-12-18T03:12:14;-3.3;79.6
9666;DHT22;4871;52.004;5.924;2022-12-18T03:13:12;-3.3;79.8
9666;DHT22;4871;52.004;5.924;2022-12-18T03:14:00;-3.3;79.7
9666;DHT22;4871;52.004;5.924;2022-12-18T03:15:10;-3.3;79.6
9666;DHT22;4871;52.004;5.924;2022-12-18T03:16:01;-3.3;79.4
9666;DHT22;4871;52.004;5.924;2022-12-18T03:17:05;-3.3;79.6
9666;DHT22;4871;52.004;5.924;2022-12-18T03:18:04;-3.3;79.5
9666;DHT22;4871;52.004;5.924;2022-12-18T03:19:09;-3.3;79.5
9666;DHT22;4871;52.004;5.924;2022-12-18T03:20:09;-3.3;79.5
9666;DHT22;4871;52.004;5.924;2022-12-18T03:21:06;-3.3;79.4
9666;DHT22;4871;52.004;5.924;2022-12-18T03:22:03;-3.3;79.6
9666;DHT22;4871;52.004;5.924;2022-12-18T03:23:09;-3.4;79.6
9666;DHT22;4871;52.004;5.924;2022-12-18T03:24:01;-3.4;79.7
9666;DHT22;4871;52.004;5.924;2022-12-18T03:25:07;-3.4;79.7
9666;DHT22;4871;52.004;5.924;2022-12-18T03:26:04;-3.4;79.6
9666;DHT22;4871;52.004;5.924;2022-12-18T03:27:08;-3.4;79.6
9666;DHT22;4871;52.004;5.924;2022-12-18T03:28:01;-3.4;79.7
9666;DHT22;4871;52.004;5.924;2022-12-18T03:29:08;-3.4;79.6
9666;DHT22;4871;52.004;5.924;2022-12-18T03:30:09;-3.4;79.6
9666;DHT22;4871;52.004;5.924;2022-12-18T03:31:05;-3.4;79.7
9666;DHT22;4871;52.004;5.924;2022-12-18T03:32:05;-3.4;79.4
9666;DHT22;4871;52.004;5.924;2022-12-18T03:33:12;-3.4;79.7
9666;DHT22;4871;52.004;5.924;2022-12-18T03:34:05;-3.3;79.2
9666;DHT22;4871;52.004;5.924;2022-12-18T03:35:05;-3.4;79.3
9666;DHT22;4871;52.004;5.924;2022-12-18T03:36:00;-3.4;79.5
9666;DHT22;4871;52.004;5.924;2022-12-18T03:37:05;-3.4;79.6
9666;DHT22;4871;52.004;5.924;2022-12-18T03:38:00;-3.4;79.3
9666;DHT22;4871;52.004;5.924;2022-12-18T03:39:04;-3.4;79.5
9666;DHT22;4871;52.004;5.924;2022-12-18T03:40:00;-3.5;79.6
9666;DHT22;4871;52.004;5.924;2022-12-18T03:41:10;-3.5;79.8
9666;DHT22;4871;52.004;5.924;2022-12-18T03:42:17;-3.5;79.7
9666;DHT22;4871;52.004;5.924;2022-12-18T03:43:12;-3.5;79.9
9666;DHT22;4871;52.004;5.924;2022-12-18T03:45:12;-3.5;79.8
9666;DHT22;4871;52.004;5.924;2022-12-18T03:46:14;-3.6;79.8
9666;DHT22;4871;52.004;5.924;2022-12-18T03:47:09;-3.5;79.9
9666;DHT22;4871;52.004;5.924;2022-12-18T03:48:06;-3.5;79.6
9666;DHT22;4871;52.004;5.924;2022-12-18T03:49:09;-3.5;79.8
9666;DHT22;4871;52.004;5.924;2022-12-18T03:51:07;-3.5;79.7
9666;DHT22;4871;52.004;5.924;2022-12-18T03:52:16;-3.5;79.6
9666;DHT22;4871;52.004;5.924;2022-12-18T03:54:02;-3.5;79.5
9666;DHT22;4871;52.004;5.924;2022-12-18T03:55:07;-3.5;79.5
9666;DHT22;4871;52.004;5.924;2022-12-18T03:56:01;-3.5;79.6
9666;DHT22;4871;52.004;5.924;2022-12-18T03:57:07;-3.6;79.8
9666;DHT22;4871;52.004;5.924;2022-12-18T03:58:01;-3.6;79.8
9666;DHT22;4871;52.004;5.924;2022-12-18T03:59:04;-3.6;79.9
9666;DHT22;4871;52.004;5.924;2022-12-18T04:00:04;-3.6;79.7
9666;DHT22;4871;52.004;5.924;2022-12-18T04:01:06;-3.5;79.6
9666;DHT22;4871;52.004;5.924;2022-12-18T04:02:01;-3.6;79.7
9666;DHT22;4871;52.004;5.924;2022-12-18T04:03:04;-3.6;79.7
9666;DHT22;4871;52.004;5.924;2022-12-18T04:04:01;-3.5;79.7
9666;DHT22;4871;52.004;5.924;2022-12-18T04:05:07;-3.5;79.7
9666;DHT22;4871;52.004;5.924;2022-12-18T04:06:01;-3.6;79.7
9666;DHT22;4871;52.004;5.924;2022-12-18T04:07:05;-3.5;79.6
9666;DHT22;4871;52.004;5.924;2022-12-18T04:08:01;-3.5;79.6
9666;DHT22;4871;52.004;5.924;2022-12-18T04:09:05;-3.5;79.6
9666;DHT22;4871;52.004;5.924;2022-12-18T04:10:01;-3.6;79.5
9666;DHT22;4871;52.004;5.924;2022-12-18T04:11:03;-3.6;79.5
9666;DHT22;4871;52.004;5.924;2022-12-18T04:12:00;-3.6;79.8
9666;DHT22;4871;52.004;5.924;2022-12-18T04:13:06;-3.6;79.5
9666;DHT22;4871;52.004;5.924;2022-12-18T04:14:00;-3.6;79.8
9666;DHT22;4871;52.004;5.924;2022-12-18T04:15:03;-3.6;79.7
9666;DHT22;4871;52.004;5.924;2022-12-18T04:16:01;-3.6;79.7
9666;DHT22;4871;52.004;5.924;2022-12-18T04:17:05;-3.6;79.7
9666;DHT22;4871;52.004;5.924;2022-12-18T04:18:00;-3.6;79.7
9666;DHT22;4871;52.004;5.924;2022-12-18T04:19:04;-3.6;79.7
9666;DHT22;4871;52.004;5.924;2022-12-18T04:20:00;-3.6;79.5
9666;DHT22;4871;52.004;5.924;2022-12-18T04:21:03;-3.6;79.6
9666;DHT22;4871;52.004;5.924;2022-12-18T04:22:00;-3.6;79.8
9666;DHT22;4871;52.004;5.924;2022-12-18T04:23:04;-3.6;79.8
9666;DHT22;4871;52.004;5.924;2022-12-18T04:24:00;-3.7;79.6
9666;DHT22;4871;52.004;5.924;2022-12-18T04:25:04;-3.6;79.6
9666;DHT22;4871;52.004;5.924;2022-12-18T04:26:00;-3.7;79.7
9666;DHT22;4871;52.004;5.924;2022-12-18T04:27:05;-3.6;79.7
9666;DHT22;4871;52.004;5.924;2022-12-18T04:28:00;-3.6;79.7
9666;DHT22;4871;52.004;5.924;2022-12-18T04:29:04;-3.6;79.5
9666;DHT22;4871;52.004;5.924;2022-12-18T04:30:00;-3.6;79.6
9666;DHT22;4871;52.004;5.924;2022-12-18T04:31:04;-3.6;79.4
9666;DHT22;4871;52.004;5.924;2022-12-18T04:32:00;-3.7;79.8
9666;DHT22;4871;52.004;5.924;2022-12-18T04:33:08;-3.6;79.8
9666;DHT22;4871;52.004;5.924;2022-12-18T04:34:00;-3.6;79.6
9666;DHT22;4871;52.004;5.924;2022-12-18T04:35:04;-3.6;79.8
9666;DHT22;4871;52.004;5.924;2022-12-18T04:36:00;-3.7;79.6
9666;DHT22;4871;52.004;5.924;2022-12-18T04:37:06;-3.6;79.6
9666;DHT22;4871;52.004;5.924;2022-12-18T04:38:00;-3.7;79.5
9666;DHT22;4871;52.004;5.924;2022-12-18T04:39:04;-3.7;79.6
9666;DHT22;4871;52.004;5.924;2022-12-18T04:40:00;-3.7;79.7
9666;DHT22;4871;52.004;5.924;2022-12-18T04:41:05;-3.6;79.6
9666;DHT22;4871;52.004;5.924;2022-12-18T04:42:00;-3.6;79.6
9666;DHT22;4871;52.004;5.924;2022-12-18T04:43:04;-3.6;79.6
9666;DHT22;4871;52.004;5.924;2022-12-18T04:44:00;-3.7;79.6
9666;DHT22;4871;52.004;5.924;2022-12-18T04:45:06;-3.7;79.7
9666;DHT22;4871;52.004;5.924;2022-12-18T04:46:01;-3.7;79.6
9666;DHT22;4871;52.004;5.924;2022-12-18T04:47:03;-3.7;79.8
9666;DHT22;4871;52.004;5.924;2022-12-18T04:48:01;-3.7;79.9
9666;DHT22;4871;52.004;5.924;2022-12-18T04:49:05;-3.7;79.7
9666;DHT22;4871;52.004;5.924;2022-12-18T04:50:00;-3.7;79.7
9666;DHT22;4871;52.004;5.924;2022-12-18T04:51:05;-3.7;79.6
9666;DHT22;4871;52.004;5.924;2022-12-18T04:52:00;-3.7;79.7
9666;DHT22;4871;52.004;5.924;2022-12-18T04:53:03;-3.7;79.6
9666;DHT22;4871;52.004;5.924;2022-12-18T04:54:00;-3.7;79.7
9666;DHT22;4871;52.004;5.924;2022-12-18T04:55:05;-3.7;79.7
9666;DHT22;4871;52.004;5.924;2022-12-18T04:56:03;-3.6;79.5
9666;DHT22;4871;52.004;5.924;2022-12-18T04:57:03;-3.6;79.4
9666;DHT22;4871;52.004;5.924;2022-12-18T04:58:00;-3.7;79.5
9666;DHT22;4871;52.004;5.924;2022-12-18T04:59:05;-3.7;79.6
9666;DHT22;4871;52.004;5.924;2022-12-18T05:00:00;-3.7;79.6
9666;DHT22;4871;52.004;5.924;2022-12-18T05:01:04;-3.7;79.7
9666;DHT22;4871;52.004;5.924;2022-12-18T05:02:00;-3.7;79.4
9666;DHT22;4871;52.004;5.924;2022-12-18T05:03:03;-3.7;79.6
9666;DHT22;4871;52.004;5.924;2022-12-18T05:04:01;-3.7;79.8
9666;DHT22;4871;52.004;5.924;2022-12-18T05:05:04;-3.7;79.6
9666;DHT22;4871;52.004;5.924;2022-12-18T05:06:00;-3.7;79.8
9666;DHT22;4871;52.004;5.924;2022-12-18T05:07:04;-3.7;79.7
9666;DHT22;4871;52.004;5.924;2022-12-18T05:08:00;-3.7;79.7
9666;DHT22;4871;52.004;5.924;2022-12-18T05:09:05;-3.8;79.9
9666;DHT22;4871;52.004;5.924;2022-12-18T05:10:00;-3.8;79.8
9666;DHT22;4871;52.004;5.924;2022-12-18T05:11:07;-3.7;79.8
9666;DHT22;4871;52.004;5.924;2022-12-18T05:12:00;-3.7;79.6
9666;DHT22;4871;52.004;5.924;2022-12-18T05:13:06;-3.7;79.4
9666;DHT22;4871;52.004;5.924;2022-12-18T05:14:00;-3.7;79.7
9666;DHT22;4871;52.004;5.924;2022-12-18T05:15:05;-3.7;79.6
9666;DHT22;4871;52.004;5.924;2022-12-18T05:16:01;-3.7;79.7
9666;DHT22;4871;52.004;5.924;2022-12-18T05:17:04;-3.7;79.8
9666;DHT22;4871;52.004;5.924;2022-12-18T05:18:00;-3.7;79.6
9666;DHT22;4871;52.004;5.924;2022-12-18T05:19:03;-3.7;79.7
9666;DHT22;4871;52.004;5.924;2022-12-18T05:20:00;-3.7;79.8
9666;DHT22;4871;52.004;5.924;2022-12-18T05:21:04;-3.7;79.7
9666;DHT22;4871;52.004;5.924;2022-12-18T05:22:01;-3.7;79.7
9666;DHT22;4871;52.004;5.924;2022-12-18T05:23:03;-3.7;79.9
9666;DHT22;4871;52.004;5.924;2022-12-18T05:24:00;-3.8;79.7
9666;DHT22;4871;52.004;5.924;2022-12-18T05:25:04;-3.8;79.8
9666;DHT22;4871;52.004;5.924;2022-12-18T05:26:03;-3.7;79.8
9666;DHT22;4871;52.004;5.924;2022-12-18T05:27:05;-3.7;79.7
9666;DHT22;4871;52.004;5.924;2022-12-18T05:28:00;-3.7;79.6
9666;DHT22;4871;52.004;5.924;2022-12-18T05:29:03;-3.7;79.5
9666;DHT22;4871;52.004;5.924;2022-12-18T05:30:00;-3.7;79.8
9666;DHT22;4871;52.004;5.924;2022-12-18T05:31:05;-3.7;79.8
9666;DHT22;4871;52.004;5.924;2022-12-18T05:32:00;-3.7;79.7
9666;DHT22;4871;52.004;5.924;2022-12-18T05:33:04;-3.7;79.6
9666;DHT22;4871;52.004;5.924;2022-12-18T05:34:00;-3.7;79.7
9666;DHT22;4871;52.004;5.924;2022-12-18T05:35:08;-3.7;79.8
9666;DHT22;4871;52.004;5.924;2022-12-18T05:36:01;-3.7;79.9
9666;DHT22;4871;52.004;5.924;2022-12-18T05:37:03;-3.8;80.0
9666;DHT22;4871;52.004;5.924;2022-12-18T05:38:00;-3.7;79.8
9666;DHT22;4871;52.004;5.924;2022-12-18T05:39:06;-3.7;79.7
9666;DHT22;4871;52.004;5.924;2022-12-18T05:40:00;-3.7;79.7
9666;DHT22;4871;52.004;5.924;2022-12-18T05:41:05;-3.7;79.7
9666;DHT22;4871;52.004;5.924;2022-12-18T05:42:00;-3.7;79.7
9666;DHT22;4871;52.004;5.924;2022-12-18T05:43:05;-3.7;79.6
9666;DHT22;4871;52.004;5.924;2022-12-18T05:44:00;-3.7;79.6
9666;DHT22;4871;52.004;5.924;2022-12-18T05:45:04;-3.7;79.5
9666;DHT22;4871;52.004;5.924;2022-12-18T05:46:11;-3.7;79.5
9666;DHT22;4871;52.004;5.924;2022-12-18T05:47:04;-3.7;79.7
9666;DHT22;4871;52.004;5.924;2022-12-18T05:48:00;-3.7;79.6
9666;DHT22;4871;52.004;5.924;2022-12-18T05:49:05;-3.7;79.8
9666;DHT22;4871;52.004;5.924;2022-12-18T05:50:00;-3.7;79.8
9666;DHT22;4871;52.004;5.924;2022-12-18T05:51:06;-3.7;79.7
9666;DHT22;4871;52.004;5.924;2022-12-18T05:52:00;-3.7;79.7
9666;DHT22;4871;52.004;5.924;2022-12-18T05:53:05;-3.7;79.7
9666;DHT22;4871;52.004;5.924;2022-12-18T05:54:00;-3.7;79.7
9666;DHT22;4871;52.004;5.924;2022-12-18T05:55:04;-3.7;79.7
9666;DHT22;4871;52.004;5.924;2022-12-18T05:56:03;-3.7;79.7
9666;DHT22;4871;52.004;5.924;2022-12-18T05:57:03;-3.7;79.8
9666;DHT22;4871;52.004;5.924;2022-12-18T05:58:01;-3.7;79.8
9666;DHT22;4871;52.004;5.924;2022-12-18T05:59:03;-3.7;79.8
9666;DHT22;4871;52.004;5.924;2022-12-18T06:00:00;-3.7;79.8
9666;DHT22;4871;52.004;5.924;2022-12-18T06:01:12;-3.7;79.9
9666;DHT22;4871;52.004;5.924;2022-12-18T06:02:00;-3.7;79.8
9666;DHT22;4871;52.004;5.924;2022-12-18T06:03:06;-3.7;79.6
9666;DHT22;4871;52.004;5.924;2022-12-18T06:04:00;-3.7;79.7
9666;DHT22;4871;52.004;5.924;2022-12-18T06:05:04;-3.7;79.7
9666;DHT22;4871;52.004;5.924;2022-12-18T06:06:00;-3.7;79.6
9666;DHT22;4871;52.004;5.924;2022-12-18T06:07:07;-3.6;79.5
9666;DHT22;4871;52.004;5.924;2022-12-18T06:08:00;-3.6;79.6
9666;DHT22;4871;52.004;5.924;2022-12-18T06:09:08;-3.7;79.6
9666;DHT22;4871;52.004;5.924;2022-12-18T06:10:00;-3.7;79.7
9666;DHT22;4871;52.004;5.924;2022-12-18T06:11:04;-3.7;79.5
9666;DHT22;4871;52.004;5.924;2022-12-18T06:12:00;-3.7;79.6
9666;DHT22;4871;52.004;5.924;2022-12-18T06:13:03;-3.7;79.6
9666;DHT22;4871;52.004;5.924;2022-12-18T06:14:00;-3.7;79.7
9666;DHT22;4871;52.004;5.924;2022-12-18T06:15:05;-3.7;79.7
9666;DHT22;4871;52.004;5.924;2022-12-18T06:16:03;-3.7;79.7
9666;DHT22;4871;52.004;5.924;2022-12-18T06:17:03;-3.7;79.8
9666;DHT22;4871;52.004;5.924;2022-12-18T06:18:00;-3.7;79.8
9666;DHT22;4871;52.004;5.924;2022-12-18T06:19:04;-3.7;79.7
9666;DHT22;4871;52.004;5.924;2022-12-18T06:20:01;-3.7;79.7
9666;DHT22;4871;52.004;5.924;2022-12-18T06:21:04;-3.7;79.7
9666;DHT22;4871;52.004;5.924;2022-12-18T06:22:00;-3.7;79.7
9666;DHT22;4871;52.004;5.924;2022-12-18T06:23:03;-3.7;79.6
9666;DHT22;4871;52.004;5.924;2022-12-18T06:24:00;-3.7;79.7
9666;DHT22;4871;52.004;5.924;2022-12-18T06:25:05;-3.7;79.7
9666;DHT22;4871;52.004;5.924;2022-12-18T06:26:05;-3.7;79.7
9666;DHT22;4871;52.004;5.924;2022-12-18T06:27:03;-3.7;79.6
9666;DHT22;4871;52.004;5.924;2022-12-18T06:28:00;-3.7;79.4
9666;DHT22;4871;52.004;5.924;2022-12-18T06:29:05;-3.7;79.5
9666;DHT22;4871;52.004;5.924;2022-12-18T06:30:00;-3.7;79.7
9666;DHT22;4871;52.004;5.924;2022-12-18T06:31:03;-3.7;79.6
9666;DHT22;4871;52.004;5.924;2022-12-18T06:32:00;-3.7;79.5
9666;DHT22;4871;52.004;5.924;2022-12-18T06:33:04;-3.6;79.4
9666;DHT22;4871;52.004;5.924;2022-12-18T06:34:02;-3.7;79.6
9666;DHT22;4871;52.004;5.924;2022-12-18T06:35:05;-3.7;79.6
9666;DHT22;4871;52.004;5.924;2022-12-18T06:36:03;-3.7;79.6
9666;DHT22;4871;52.004;5.924;2022-12-18T06:37:05;-3.7;79.6
9666;DHT22;4871;52.004;5.924;2022-12-18T06:38:02;-3.7;79.6
9666;DHT22;4871;52.004;5.924;2022-12-18T06:39:03;-3.7;79.6
9666;DHT22;4871;52.004;5.924;2022-12-18T06:40:00;-3.7;79.6
9666;DHT22;4871;52.004;5.924;2022-12-18T06:41:09;-3.7;79.5
9666;DHT22;4871;52.004;5.924;2022-12-18T06:42:01;-3.7;79.6
9666;DHT22;4871;52.004;5.924;2022-12-18T06:43:04;-3.7;79.5
9666;DHT22;4871;52.004;5.924;2022-12-18T06:44:00;-3.7;79.6
9666;DHT22;4871;52.004;5.924;2022-12-18T06:45:04;-3.7;79.5
9666;DHT22;4871;52.004;5.924;2022-12-18T06:46:01;-3.7;79.5
9666;DHT22;4871;52.004;5.924;2022-12-18T06:47:05;-3.7;79.4
9666;DHT22;4871;52.004;5.924;2022-12-18T06:48:00;-3.7;79.6
9666;DHT22;4871;52.004;5.924;2022-12-18T06:49:05;-3.8;79.6
9666;DHT22;4871;52.004;5.924;2022-12-18T06:50:00;-3.7;79.7
9666;DHT22;4871;52.004;5.924;2022-12-18T06:51:05;-3.7;79.6
9666;DHT22;4871;52.004;5.924;2022-12-18T06:52:00;-3.7;79.6
9666;DHT22;4871;52.004;5.924;2022-12-18T06:53:03;-3.8;79.7
9666;DHT22;4871;52.004;5.924;2022-12-18T06:54:00;-3.7;79.6
9666;DHT22;4871;52.004;5.924;2022-12-18T06:55:08;-3.7;79.6
9666;DHT22;4871;52.004;5.924;2022-12-18T06:56:01;-3.7;79.6
9666;DHT22;4871;52.004;5.924;2022-12-18T06:57:03;-3.7;79.7
9666;DHT22;4871;52.004;5.924;2022-12-18T06:58:00;-3.8;79.8